createdAt,value
2018-07-27T00:00:28.537Z,3.60
2018-07-27T00:02:56.877Z,3.20
2018-07-27T00:05:25.156Z,3.67
2018-07-27T00:07:53.491Z,3.67
2018-07-27T00:10:21.842Z,3.83
2018-07-27T00:12:50.164Z,3.97
2018-07-27T00:15:18.456Z,3.93
2018-07-27T00:17:46.819Z,4.37
2018-07-27T00:20:15.156Z,3.50
2018-07-27T00:22:43.483Z,4.37
2018-07-27T00:25:11.811Z,4.50
2018-07-27T00:27:40.127Z,3.47
2018-07-27T00:30:08.460Z,4.20
2018-07-27T00:32:36.823Z,3.77
2018-07-27T00:35:05.151Z,3.80
2018-07-27T00:37:33.468Z,4.13
2018-07-27T00:40:01.776Z,4.00
2018-07-27T00:42:30.111Z,3.97
2018-07-27T00:44:58.412Z,4.60
2018-07-27T00:47:26.730Z,3.83
2018-07-27T00:49:55.049Z,3.50
2018-07-27T00:52:23.385Z,4.00
2018-07-27T00:54:51.723Z,4.40
2018-07-27T00:57:20.053Z,4.43
2018-07-27T00:59:48.353Z,4.27
2018-07-27T01:02:16.777Z,4.20
2018-07-27T01:04:45.152Z,3.50
2018-07-27T01:07:13.532Z,4.33
2018-07-27T01:09:41.888Z,3.63
2018-07-27T01:12:10.288Z,4.00
2018-07-27T01:14:38.666Z,4.80
2018-07-27T01:17:07.083Z,4.37
2018-07-27T01:19:35.497Z,4.10
2018-07-27T01:22:03.906Z,4.33
2018-07-27T01:24:32.280Z,4.33
2018-07-27T01:27:00.645Z,3.80
2018-07-27T01:29:29.018Z,3.57
2018-07-27T01:31:57.395Z,4.37
2018-07-27T01:34:25.860Z,4.27
2018-07-27T01:36:54.236Z,4.43
2018-07-27T01:39:22.689Z,3.97
2018-07-27T01:41:51.089Z,3.97
2018-07-27T01:44:19.491Z,4.87
2018-07-27T01:46:47.870Z,4.33
2018-07-27T01:49:16.252Z,4.27
2018-07-27T01:51:44.628Z,4.83
2018-07-27T01:54:13.011Z,3.83
2018-07-27T01:56:41.372Z,4.60
2018-07-27T01:59:09.760Z,5.23
2018-07-27T02:01:38.132Z,4.77
2018-07-27T02:04:06.883Z,4.93
2018-07-27T02:06:35.273Z,4.63
2018-07-27T02:09:05.815Z,5.30
2018-07-27T02:11:33.892Z,4.63
2018-07-27T02:14:02.289Z,5.30
2018-07-27T02:16:30.657Z,4.80
2018-07-27T02:18:59.073Z,3.80
2018-07-27T02:21:27.364Z,4.70
2018-07-27T02:23:55.669Z,5.27
2018-07-27T02:26:23.988Z,5.03
2018-07-27T02:28:52.293Z,4.87
2018-07-27T02:31:20.622Z,5.10
2018-07-27T02:33:48.979Z,4.90
2018-07-27T02:36:17.276Z,4.73
2018-07-27T02:38:45.596Z,5.10
2018-07-27T02:41:14.087Z,4.80
2018-07-27T02:43:42.397Z,5.00
2018-07-27T02:46:10.707Z,4.40
2018-07-27T02:48:39.056Z,5.13
2018-07-27T02:51:07.528Z,5.70
2018-07-27T02:53:35.899Z,5.10
2018-07-27T02:56:04.226Z,5.03
2018-07-27T02:58:32.572Z,5.10
2018-07-27T03:01:00.907Z,5.37
2018-07-27T03:03:29.260Z,5.20
2018-07-27T03:05:57.839Z,6.00
2018-07-27T03:08:26.201Z,4.67
2018-07-27T03:10:54.533Z,4.73
2018-07-27T03:13:22.937Z,5.60
2018-07-27T03:15:51.244Z,5.30
2018-07-27T03:18:19.595Z,5.37
2018-07-27T03:20:47.942Z,4.57
2018-07-27T03:23:16.350Z,5.97
2018-07-27T03:25:44.671Z,4.77
2018-07-27T03:28:13.017Z,5.40
2018-07-27T03:30:41.347Z,5.27
2018-07-27T03:33:09.693Z,5.73
2018-07-27T03:35:38.195Z,5.47
2018-07-27T03:38:06.525Z,6.00
2018-07-27T03:40:34.893Z,5.43
2018-07-27T03:43:03.287Z,5.50
2018-07-27T03:45:31.655Z,5.57
2018-07-27T03:48:00.046Z,6.37
2018-07-27T03:50:28.370Z,6.17
2018-07-27T03:52:56.680Z,5.87
2018-07-27T03:55:24.997Z,5.97
2018-07-27T03:57:53.296Z,5.70
2018-07-27T04:00:21.739Z,5.03
2018-07-27T04:02:50.131Z,5.67
2018-07-27T04:05:18.448Z,5.20
2018-07-27T04:07:46.847Z,6.10
2018-07-27T04:10:15.324Z,5.13
2018-07-27T04:12:43.631Z,5.60
2018-07-27T04:15:11.964Z,5.80
2018-07-27T04:17:44.034Z,5.63
2018-07-27T04:20:12.349Z,5.83
2018-07-27T04:22:40.671Z,6.30
2018-07-27T04:25:09.071Z,5.60
2018-07-27T04:27:37.379Z,5.60
2018-07-27T04:30:05.941Z,6.27
2018-07-27T04:32:34.273Z,5.50
2018-07-27T04:35:02.701Z,5.97
2018-07-27T04:37:31.037Z,6.17
2018-07-27T04:39:59.344Z,6.10
2018-07-27T04:42:27.637Z,6.37
2018-07-27T04:44:55.957Z,6.10
2018-07-27T04:47:24.265Z,6.80
2018-07-27T04:49:52.703Z,5.97
2018-07-27T04:52:21.064Z,6.60
2018-07-27T04:54:49.418Z,6.67
2018-07-27T04:57:17.709Z,6.07
2018-07-27T04:59:46.025Z,5.60
2018-07-27T05:02:14.330Z,6.67
2018-07-27T05:04:42.864Z,5.80
2018-07-27T05:07:11.195Z,7.80
2018-07-27T05:09:39.529Z,7.27
2018-07-27T05:12:07.881Z,6.87
2018-07-27T05:14:36.261Z,6.30
2018-07-27T05:17:04.635Z,6.57
2018-07-27T05:19:32.966Z,5.90
2018-07-27T05:22:01.289Z,6.33
2018-07-27T05:24:29.643Z,6.03
2018-07-27T05:26:57.967Z,6.60
2018-07-27T05:29:26.301Z,6.37
2018-07-27T05:31:54.604Z,6.57
2018-07-27T05:34:23.007Z,5.73
2018-07-27T05:36:51.244Z,6.30
2018-07-27T05:39:19.584Z,6.20
2018-07-27T05:41:47.901Z,6.20
2018-07-27T05:44:16.217Z,5.77
2018-07-27T05:46:44.545Z,6.80
2018-07-27T05:49:12.857Z,6.97
2018-07-27T05:51:41.373Z,6.20
2018-07-27T05:54:09.670Z,7.07
2018-07-27T05:56:37.989Z,6.27
2018-07-27T05:59:06.349Z,7.10
2018-07-27T06:01:34.670Z,6.77
2018-07-27T06:04:03.008Z,6.53
2018-07-27T06:06:31.352Z,6.23
2018-07-27T06:08:59.653Z,6.60
2018-07-27T06:11:28.039Z,5.87
2018-07-27T06:13:56.349Z,6.30
2018-07-27T06:16:24.753Z,7.03
2018-07-27T06:18:53.083Z,6.40
2018-07-27T06:21:21.401Z,7.50
2018-07-27T06:23:49.725Z,6.40
2018-07-27T06:26:18.108Z,6.70
2018-07-27T06:28:46.442Z,6.93
2018-07-27T06:31:14.771Z,6.90
2018-07-27T06:33:43.088Z,6.60
2018-07-27T06:36:11.426Z,7.60
2018-07-27T06:38:39.753Z,5.83
2018-07-27T06:41:08.111Z,6.97
2018-07-27T06:43:36.458Z,6.90
2018-07-27T06:46:04.835Z,6.57
2018-07-27T06:48:33.211Z,6.67
2018-07-27T06:51:01.562Z,6.97
2018-07-27T06:53:29.880Z,6.30
2018-07-27T06:55:58.215Z,6.80
2018-07-27T06:58:26.531Z,6.67
2018-07-27T07:00:54.869Z,6.30
2018-07-27T07:03:23.286Z,6.63
2018-07-27T07:05:51.573Z,7.07
2018-07-27T07:08:19.880Z,7.37
2018-07-27T07:10:48.224Z,6.70
2018-07-27T07:13:16.529Z,7.00
2018-07-27T07:15:44.950Z,6.90
2018-07-27T07:18:13.241Z,7.40
2018-07-27T07:20:41.577Z,7.33
2018-07-27T07:23:10.007Z,6.60
2018-07-27T07:25:38.424Z,6.80
2018-07-27T07:28:06.639Z,6.90
2018-07-27T07:30:34.983Z,7.60
2018-07-27T07:33:03.313Z,7.50
2018-07-27T07:35:31.626Z,7.73
2018-07-27T07:37:59.940Z,7.57
2018-07-27T07:40:28.240Z,7.87
2018-07-27T07:42:56.560Z,7.40
2018-07-27T07:45:24.872Z,6.70
2018-07-27T07:47:53.240Z,6.17
2018-07-27T07:50:21.536Z,7.20
2018-07-27T07:52:49.861Z,6.80
2018-07-27T07:55:18.170Z,7.00
2018-07-27T07:57:46.519Z,6.30
2018-07-27T08:00:14.860Z,6.90
2018-07-27T08:02:43.305Z,7.27
2018-07-27T08:05:11.620Z,6.83
2018-07-27T08:07:39.941Z,7.30
2018-07-27T08:10:08.244Z,6.93
2018-07-27T08:12:36.575Z,7.73
2018-07-27T08:15:05.283Z,7.80
2018-07-27T08:17:33.626Z,7.00
2018-07-27T08:20:01.957Z,6.93
2018-07-27T08:22:30.289Z,7.70
2018-07-27T08:24:58.612Z,6.80
2018-07-27T08:27:26.943Z,7.20
2018-07-27T08:29:54.964Z,7.23
2018-07-27T08:32:23.303Z,6.50
2018-07-27T08:34:51.615Z,6.17
2018-07-27T08:37:19.936Z,7.10
2018-07-27T08:39:48.285Z,7.07
2018-07-27T08:42:16.330Z,7.37
2018-07-27T08:44:44.682Z,7.27
2018-07-27T08:47:13.084Z,6.93
2018-07-27T08:49:41.344Z,8.03
2018-07-27T08:52:09.685Z,6.50
2018-07-27T08:54:37.999Z,6.73
2018-07-27T08:57:06.371Z,7.10
2018-07-27T08:59:34.669Z,6.50
2018-07-27T09:02:02.994Z,7.27
2018-07-27T09:04:31.967Z,7.60
2018-07-27T09:07:00.272Z,7.07
2018-07-27T09:09:28.612Z,7.30
2018-07-27T09:11:56.913Z,7.30
2018-07-27T09:14:25.287Z,6.47
2018-07-27T09:16:53.609Z,7.13
2018-07-27T09:19:22.004Z,7.20
2018-07-27T09:21:50.313Z,7.17
2018-07-27T09:24:18.685Z,7.50
2018-07-27T09:26:47.018Z,6.77
2018-07-27T09:29:15.333Z,7.27
2018-07-27T09:31:43.656Z,7.50
2018-07-27T09:34:12.033Z,7.20
2018-07-27T09:36:40.382Z,7.13
2018-07-27T09:39:09.989Z,6.83
2018-07-27T09:41:38.314Z,6.07
2018-07-27T09:44:06.915Z,6.83
2018-07-27T09:46:35.723Z,5.90
2018-07-27T09:49:04.089Z,6.60
2018-07-27T09:51:32.563Z,6.13
2018-07-27T09:54:00.887Z,6.70
2018-07-27T09:56:29.215Z,6.97
2018-07-27T09:58:57.581Z,6.70
2018-07-27T10:01:27.534Z,6.50
2018-07-27T10:03:56.199Z,6.77
2018-07-27T10:06:24.520Z,6.27
2018-07-27T10:08:52.871Z,6.23
2018-07-27T10:11:21.592Z,6.57
2018-07-27T10:13:49.991Z,6.20
2018-07-27T10:16:18.320Z,5.57
2018-07-27T10:18:47.519Z,5.40
2018-07-27T10:21:15.919Z,5.70
2018-07-27T10:23:44.581Z,4.97
2018-07-27T10:26:12.959Z,5.30
2018-07-27T10:28:41.291Z,5.00
2018-07-27T10:31:09.660Z,5.57
2018-07-27T10:33:37.990Z,5.93
2018-07-27T10:36:06.520Z,6.50
2018-07-27T10:38:34.916Z,5.90
2018-07-27T10:41:03.321Z,5.50
2018-07-27T10:43:31.631Z,5.03
2018-07-27T10:45:59.956Z,5.50
2018-07-27T10:48:28.264Z,5.70
2018-07-27T10:50:56.678Z,5.70
2018-07-27T10:53:24.999Z,5.70
2018-07-27T10:55:53.329Z,6.33
2018-07-27T10:58:21.866Z,5.50
2018-07-27T11:00:50.203Z,5.50
2018-07-27T11:03:18.521Z,5.63
2018-07-27T11:05:46.871Z,5.70
2018-07-27T11:08:15.198Z,5.83
2018-07-27T11:10:43.557Z,5.60
2018-07-27T11:13:11.884Z,6.23
2018-07-27T11:15:40.211Z,5.17
2018-07-27T11:18:08.533Z,5.77
2018-07-27T11:20:37.019Z,5.37
2018-07-27T11:23:05.347Z,5.57
2018-07-27T11:25:33.750Z,4.97
2018-07-27T11:28:02.151Z,5.53
2018-07-27T11:30:30.672Z,5.30
2018-07-27T11:32:58.971Z,5.87
2018-07-27T11:35:27.332Z,5.77
2018-07-27T11:37:55.676Z,5.80
2018-07-27T11:40:24.033Z,5.80
2018-07-27T11:42:52.333Z,5.60
2018-07-27T11:45:20.671Z,5.53
2018-07-27T11:47:48.981Z,5.70
2018-07-27T11:50:17.290Z,5.23
2018-07-27T11:52:45.661Z,5.50
2018-07-27T11:55:14.003Z,5.60
2018-07-27T11:57:42.388Z,4.90
2018-07-27T12:00:10.733Z,5.80
2018-07-27T12:05:15.278Z,5.43
2018-07-27T12:07:43.612Z,4.93
2018-07-27T12:10:11.956Z,5.30
2018-07-27T12:12:40.277Z,5.13
2018-07-27T12:15:08.889Z,5.60
2018-07-27T12:17:36.946Z,4.20
2018-07-27T12:20:05.250Z,4.53
2018-07-27T12:22:33.675Z,4.67
2018-07-27T12:25:01.976Z,4.37
2018-07-27T12:27:30.693Z,4.30
2018-07-27T12:29:59.047Z,4.90
2018-07-27T12:32:27.380Z,4.90
2018-07-27T12:34:55.706Z,5.30
2018-07-27T12:37:24.047Z,4.70
2018-07-27T12:39:52.384Z,5.00
2018-07-27T12:42:20.712Z,4.40
2018-07-27T12:44:49.111Z,4.90
2018-07-27T12:47:17.388Z,5.37
2018-07-27T12:49:45.680Z,4.37
2018-07-27T12:52:13.994Z,4.93
2018-07-27T12:54:42.320Z,4.77
2018-07-27T12:57:10.659Z,4.80
2018-07-27T12:59:38.962Z,4.40
2018-07-27T13:02:07.380Z,4.57
2018-07-27T13:04:35.708Z,4.73
2018-07-27T13:07:04.021Z,4.80
2018-07-27T13:09:32.353Z,4.13
2018-07-27T13:12:00.677Z,5.30
2018-07-27T13:14:28.993Z,4.93
2018-07-27T13:16:57.305Z,4.50
2018-07-27T13:19:25.649Z,4.90
2018-07-27T13:21:54.053Z,4.20
2018-07-27T13:26:50.721Z,4.83
2018-07-27T13:29:19.107Z,5.07
2018-07-27T13:31:49.372Z,4.47
2018-07-27T13:34:39.333Z,4.13
2018-07-27T13:37:07.684Z,4.70
2018-07-27T13:39:36.606Z,4.93
2018-07-27T13:42:05.773Z,4.57
2018-07-27T13:44:35.255Z,4.43
2018-07-27T13:47:04.444Z,5.03
2018-07-27T13:49:32.844Z,5.10
2018-07-27T13:52:01.447Z,4.73
2018-07-27T13:54:30.921Z,5.03
2018-07-27T13:56:59.476Z,4.60
2018-07-27T13:59:27.806Z,3.90
2018-07-27T14:01:56.191Z,4.50
2018-07-27T14:04:24.583Z,4.50
2018-07-27T14:06:54.226Z,5.07
2018-07-27T14:09:22.556Z,4.73
2018-07-27T14:11:50.893Z,4.30
2018-07-27T14:14:19.290Z,4.77
2018-07-27T14:16:47.601Z,4.43
2018-07-27T14:19:16.842Z,4.30
2018-07-27T14:21:45.144Z,4.37
2018-07-27T14:24:13.499Z,4.53
2018-07-27T14:26:41.862Z,4.37
2018-07-27T14:29:10.219Z,4.90
2018-07-27T14:31:38.569Z,5.40
2018-07-27T14:34:07.451Z,5.07
2018-07-27T14:36:35.815Z,4.90
2018-07-27T14:39:06.753Z,4.63
2018-07-27T14:41:35.071Z,4.57
2018-07-27T14:44:03.820Z,4.50
2018-07-27T14:46:32.313Z,4.10
2018-07-27T14:49:00.723Z,4.20
2018-07-27T14:51:29.288Z,4.87
2018-07-27T14:53:57.655Z,4.47
2018-07-27T14:56:25.991Z,4.90
2018-07-27T14:58:54.323Z,4.50
2018-07-27T15:01:22.668Z,4.33
2018-07-27T15:03:51.027Z,4.73
2018-07-27T15:06:19.358Z,4.40
2018-07-27T15:08:47.660Z,4.87
2018-07-27T15:11:15.976Z,4.70
2018-07-27T15:13:44.299Z,4.50
2018-07-27T15:16:12.635Z,4.90
2018-07-27T15:18:40.934Z,4.43
2018-07-27T15:21:09.287Z,4.60
2018-07-27T15:23:37.595Z,4.47
2018-07-27T15:26:05.908Z,4.73
2018-07-27T15:28:34.753Z,4.67
2018-07-27T15:31:03.311Z,4.63
2018-07-27T15:33:31.787Z,4.47
2018-07-27T15:36:00.109Z,5.20
2018-07-27T15:38:28.460Z,4.60
2018-07-27T15:40:56.792Z,4.80
2018-07-27T15:43:25.103Z,4.80
2018-07-27T15:45:53.442Z,4.63
2018-07-27T15:48:22.543Z,4.83
2018-07-27T15:50:50.781Z,4.80
2018-07-27T15:53:19.119Z,4.43
2018-07-27T15:55:47.505Z,4.43
2018-07-27T15:58:15.847Z,4.70
2018-07-27T16:00:44.168Z,4.40
2018-07-27T16:03:12.522Z,4.43
2018-07-27T16:05:40.898Z,4.23
2018-07-27T16:08:09.243Z,4.70
2018-07-27T16:10:37.576Z,5.50
2018-07-27T16:13:06.114Z,4.57
2018-07-27T16:15:34.533Z,4.30
2018-07-27T16:18:02.924Z,4.53
2018-07-27T16:20:31.276Z,4.60
2018-07-27T16:22:59.697Z,4.67
2018-07-27T16:25:28.057Z,5.00
2018-07-27T16:27:56.360Z,4.97
2018-07-27T16:30:24.784Z,4.70
2018-07-27T16:32:53.137Z,5.43
2018-07-27T16:35:21.475Z,4.70
2018-07-27T16:37:49.812Z,4.70
2018-07-27T16:40:18.144Z,5.30
2018-07-27T16:42:46.480Z,4.90
2018-07-27T16:45:14.801Z,5.20
2018-07-27T16:47:43.176Z,4.83
2018-07-27T16:50:11.489Z,4.90
2018-07-27T16:52:39.851Z,4.97
2018-07-27T16:55:08.226Z,5.10
2018-07-27T16:57:36.557Z,4.93
2018-07-27T17:00:05.171Z,4.80
2018-07-27T17:02:33.548Z,4.67
2018-07-27T17:05:02.006Z,4.80
2018-07-27T17:07:30.356Z,4.93
2018-07-27T17:09:58.920Z,5.03
2018-07-27T17:12:27.265Z,4.60
2018-07-27T17:14:55.569Z,4.90
2018-07-27T17:17:23.923Z,4.90
2018-07-27T17:19:52.237Z,4.43
2018-07-27T17:22:20.552Z,4.73
2018-07-27T17:24:48.989Z,4.60
2018-07-27T17:27:17.335Z,5.37
2018-07-27T17:29:45.742Z,4.60
2018-07-27T17:32:14.093Z,5.23
2018-07-27T17:34:42.402Z,5.00
2018-07-27T17:37:10.754Z,6.20
2018-07-27T17:39:39.095Z,5.17
2018-07-27T17:42:07.437Z,4.77
2018-07-27T17:44:35.736Z,4.80
2018-07-27T17:47:04.107Z,4.80
2018-07-27T17:49:32.453Z,4.70
2018-07-27T17:52:00.857Z,5.50
2018-07-27T17:54:29.180Z,4.80
2018-07-27T17:56:57.533Z,4.70
2018-07-27T17:59:25.865Z,4.70
2018-07-27T18:01:54.220Z,5.33
2018-07-27T18:04:22.633Z,5.67
2018-07-27T18:06:50.967Z,4.60
2018-07-27T18:09:19.345Z,4.10
2018-07-27T18:11:47.742Z,5.30
2018-07-27T18:14:16.101Z,5.17
2018-07-27T18:16:44.609Z,5.00
2018-07-27T18:19:12.958Z,5.10
2018-07-27T18:21:41.304Z,5.60
2018-07-27T18:24:09.655Z,5.47
2018-07-27T18:26:38.137Z,4.90
2018-07-27T18:29:06.760Z,5.30
2018-07-27T18:31:35.097Z,5.40
2018-07-27T18:34:03.544Z,5.27
2018-07-27T18:36:31.863Z,5.90
2018-07-27T18:39:00.238Z,6.00
2018-07-27T18:41:28.551Z,5.50
2018-07-27T18:43:56.899Z,6.20
2018-07-27T18:46:25.215Z,5.80
2018-07-27T18:48:53.676Z,6.10
2018-07-27T18:51:22.003Z,5.83
2018-07-27T18:53:50.317Z,5.87
2018-07-27T18:56:18.649Z,5.90
2018-07-27T18:58:46.981Z,6.00
2018-07-27T19:01:15.294Z,5.57
2018-07-27T19:03:43.733Z,5.90
2018-07-27T19:06:12.191Z,5.50
2018-07-27T19:08:40.567Z,5.50
2018-07-27T19:11:08.921Z,5.60
2018-07-27T19:13:37.298Z,5.37
2018-07-27T19:16:06.029Z,6.30
2018-07-27T19:18:34.367Z,5.87
2018-07-27T19:21:02.702Z,5.90
2018-07-27T19:23:31.073Z,5.70
2018-07-27T19:25:59.399Z,6.20
2018-07-27T19:28:27.766Z,5.30
2018-07-27T19:30:56.173Z,5.20
2018-07-27T19:33:24.546Z,5.60
2018-07-27T19:35:52.823Z,5.73
2018-07-27T19:38:21.141Z,5.60
2018-07-27T19:40:49.466Z,6.10
2018-07-27T19:43:17.783Z,6.40
2018-07-27T19:45:46.121Z,5.60
2018-07-27T19:48:14.427Z,6.33
2018-07-27T19:50:42.817Z,5.90
2018-07-27T19:53:10.914Z,6.17
2018-07-27T19:55:39.306Z,5.70
2018-07-27T19:58:07.663Z,5.50
2018-07-27T20:00:36.035Z,6.50
2018-07-27T20:03:04.495Z,5.97
2018-07-27T20:05:33.928Z,5.73
2018-07-27T20:08:02.323Z,4.70
2018-07-27T20:10:30.762Z,6.03
2018-07-27T20:12:59.137Z,5.50
2018-07-27T20:15:27.471Z,5.90
2018-07-27T20:17:55.780Z,6.13
2018-07-27T20:20:24.115Z,5.97
2018-07-27T20:22:52.427Z,6.10
2018-07-27T20:25:20.760Z,6.20
2018-07-27T20:27:49.091Z,6.40
2018-07-27T20:30:17.493Z,6.50
2018-07-27T20:32:45.812Z,6.20
2018-07-27T20:35:14.155Z,6.23
2018-07-27T20:37:42.526Z,5.63
2018-07-27T20:40:10.859Z,6.50
2018-07-27T20:42:39.195Z,6.03
2018-07-27T20:45:07.783Z,6.07
2018-07-27T20:47:36.591Z,5.83
2018-07-27T20:50:05.520Z,5.70
2018-07-27T20:52:33.889Z,5.80
2018-07-27T20:55:02.442Z,5.60
2018-07-27T20:57:30.771Z,5.50
2018-07-27T21:00:01.397Z,5.47
2018-07-27T21:02:29.747Z,6.17
2018-07-27T21:04:58.216Z,5.50
2018-07-27T21:07:26.542Z,5.40
2018-07-27T21:09:54.912Z,4.93
2018-07-27T21:12:23.276Z,6.20
2018-07-27T21:14:51.573Z,6.20
2018-07-27T21:17:19.904Z,6.60
2018-07-27T21:19:48.197Z,5.60
2018-07-27T21:22:16.521Z,6.07
2018-07-27T21:24:44.824Z,6.37
2018-07-27T21:27:13.177Z,5.73
2018-07-27T21:29:41.499Z,5.13
2018-07-27T21:32:09.832Z,5.90
2018-07-27T21:34:38.215Z,6.00
2018-07-27T21:37:06.537Z,6.20
2018-07-27T21:39:34.847Z,6.20
2018-07-27T21:42:03.199Z,6.07
2018-07-27T21:44:31.492Z,6.30
2018-07-27T21:46:59.804Z,6.40
2018-07-27T21:49:28.107Z,6.13
2018-07-27T21:51:56.421Z,5.60
2018-07-27T21:54:24.705Z,6.70
2018-07-27T21:56:53.016Z,5.77
2018-07-27T21:59:21.343Z,5.57
2018-07-27T22:01:49.664Z,5.47
2018-07-27T22:04:18.009Z,5.60
2018-07-27T22:06:46.361Z,6.37
2018-07-27T22:09:14.688Z,6.30
2018-07-27T22:11:43.051Z,5.97
2018-07-27T22:14:11.365Z,6.73
2018-07-27T22:16:39.700Z,6.27
2018-07-27T22:19:08.005Z,6.33
2018-07-27T22:21:36.360Z,6.50
2018-07-27T22:24:04.669Z,6.97
2018-07-27T22:26:33.042Z,6.13
2018-07-27T22:29:01.390Z,6.50
2018-07-27T22:31:29.721Z,5.90
2018-07-27T22:33:58.043Z,6.43
2018-07-27T22:36:26.366Z,6.07
2018-07-27T22:38:54.788Z,6.00
2018-07-27T22:41:23.123Z,6.70
2018-07-27T22:43:51.498Z,6.33
2018-07-27T22:46:19.807Z,6.57
2018-07-27T22:48:48.324Z,7.00
2018-07-27T22:51:16.660Z,5.90
2018-07-27T22:53:45.016Z,7.50
2018-07-27T22:56:13.324Z,6.43
2018-07-27T22:58:41.640Z,6.60
2018-07-27T23:01:09.940Z,6.30
2018-07-27T23:03:38.311Z,6.60
2018-07-27T23:06:06.652Z,6.87
2018-07-27T23:08:35.017Z,6.60
2018-07-27T23:11:03.369Z,6.40
2018-07-27T23:13:31.706Z,6.53
2018-07-27T23:16:00.063Z,7.60
2018-07-27T23:18:28.394Z,7.43
2018-07-27T23:20:56.690Z,6.53
2018-07-27T23:23:25.032Z,6.90
2018-07-27T23:25:53.364Z,6.83
2018-07-27T23:28:21.674Z,6.40
2018-07-27T23:30:49.992Z,7.13
2018-07-27T23:33:18.366Z,6.50
2018-07-27T23:35:46.668Z,5.90
2018-07-27T23:38:15.036Z,6.33
2018-07-27T23:40:43.361Z,6.53
2018-07-27T23:43:11.764Z,6.40
2018-07-27T23:45:40.078Z,6.20
2018-07-27T23:48:08.406Z,6.87
2018-07-27T23:50:36.824Z,6.67
2018-07-27T23:53:05.243Z,6.80
2018-07-27T23:55:33.545Z,6.77
2018-07-27T23:58:01.878Z,6.33
